Weather observations for the past three days for
Appleton Municipal Airport
Metric (Imperial)
Date Time (cdt) Wind (kph) Vis. (km) Weather Sky Cond. Temperature (ºC) Relative Humidity Wind Chill (°C) Heat Index (°C) Pressure Precipitation (cm)
Air Dwpt 6 hour altimeter (cm) sea level (mb) 1 hr 3 hr 6 hr
Max. Min.
02 15:35 SW 28 G 39 16.09 Overcast SCT090 OVC120 21 -0.5 24% 75.84 0.0
02 15:15 SW 30 G 41 16.09 Overcast OVC130 20.6 -1.6 23% 75.9 0.0
02 14:55 W 30 16.09 Overcast OVC130 20.5 -2.3 22% 75.92 0.0
02 14:35 W 20 G 37 16.09 Overcast OVC130 19.8 -1.4 24% 75.95 0.0
02 14:15 SW 28 16.09 Overcast OVC140 19.9 -1.3 24% 75.97 0.0
02 13:55 W 30 G 41 16.09 Mostly Cloudy BKN160 19.8 -1.2 24% 76 0.0
02 13:35 W 31 G 41 16.09 A Few Clouds FEW180 20.6 -1.5 23% 76 0.0
02 13:15 W 33 G 41 16.09 A Few Clouds and Breezy FEW300 20.2 -0.8 24% 76.02 0.0
02 12:55 W 26 16.09 Fair CLR 20 -0.6 20.2 2.7 25% 76.05 0.0
02 12:35 W 28 G 37 16.09 Fair CLR 20 -0.5 25% 76.07 0.0
02 12:15 W 31 16.09 Fair CLR 19.6 0 27% 76.1 0.0
02 11:55 W 26 16.09 Fair CLR 18.6 0.6 30% 76.12 0.0
02 11:35 W 26 G 35 16.09 Fair CLR 17.9 0.2 30% 76.15 0.0
02 11:15 W 24 G 35 16.09 Fair CLR 17.3 0 31% 76.15 0.0
02 10:55 SW 24 16.09 Fair CLR 16.5 0.3 34% 76.2 0.0
02 10:35 SW 22 16.09 Fair CLR 15.6 -0.2 34% 76.23 0.0
02 10:15 SW 20 16.09 Fair CLR 14.5 0.1 38% 76.23 0.0
02 09:55 SW 19 16.09 Fair CLR 13 -0.1 41% 76.25 0.0
02 09:35 W 19 16.09 Fair CLR 12 0.2 45% 76.28 0.0
02 09:15 SW 20 16.09 Fair CLR 10.6 -0.3 47% 76.3 0.0
02 08:55 SW 17 16.09 Fair CLR 8.6 -0.3 54% 6 76.33 0.0
02 08:35 SW 17 16.09 Fair CLR 7.3 -0.5 58% 5 76.33 0.0
02 08:15 SW 15 16.09 Fair CLR 6.3 -1.1 59% 4 76.33 0.0
02 07:55 SW 11 16.09 Fair CLR 5.3 -1.1 64% 3 76.35 0.0
02 07:35 SW 9 16.09 Fair CLR 4.4 -1 68% 2 76.35 0.0
02 07:15 SW 9 14.48 Fair CLR 2.7 -2 72% 0 76.35 0.0
02 06:55 SW 9 14.48 A Few Clouds FEW090 2.4 -2.2 2.6 0 72% 0 76.35 0.0
02 06:35 SW 9 14.48 A Few Clouds FEW095 2.2 -2.3 72% -0 76.35 0.0
02 06:15 SW 9 14.48 A Few Clouds FEW095 1.6 -2.5 74% -1 76.38 0.0
02 05:55 SW 7 16.09 Mostly Cloudy BKN095 1.6 -2.3 76% -0 76.38 0.0
02 05:35 SW 7 16.09 Mostly Cloudy BKN090 1.9 -2 76% 0 76.38 0.0
02 05:15 SW 9 16.09 Mostly Cloudy BKN090 2.2 -2 74% -0 76.4 0.0
02 04:55 SW 7 16.09 A Few Clouds FEW095 1.7 -2.2 76% -0 76.4 0.0
02 04:35 SW 9 16.09 Fair CLR 0.3 -2.2 84% -2 76.43 0.0
02 04:15 SW 7 16.09 Fair CLR 0.4 -2.5 81% -2 76.43 0.0
02 03:55 SW 7 16.09 Fair CLR 0.9 -2.6 78% -1 76.43 0.0
02 03:35 SW 7 16.09 Fair CLR 1.3 -2.2 78% -1 76.43 0.0
02 03:15 W 7 16.09 Fair CLR 0.4 -1.3 89% -2 76.43 0.0
02 02:55 SW 6 16.09 Fair CLR 0.2 -1.4 89% 76.43 0.0
02 02:35 W 6 16.09 Fair CLR 0.8 -1.3 86% 76.43 0.0
02 02:15 Calm 16.09 Fair CLR 0 -1.2 92% 76.43 0.0
02 01:55 Calm 16.09 Fair CLR 0.8 -1.3 86% 76.45 0.0
02 01:35 Calm 16.09 Fair CLR 1.9 -1 81% 76.45 0.0
02 01:15 SW 6 16.09 Fair CLR 1.6 -1.5 80% 76.45 0.0
02 00:55 Calm 16.09 Fair CLR 1.8 -1.8 11.8 1.7 77% 76.45 0.0
02 00:35 W 6 16.09 Fair CLR 2.2 -1.4 77% 76.45 0.0
02 00:15 W 6 16.09 Fair CLR 3.8 -1.3 70% 76.48 0.0
01 23:55 Calm 16.09 Fair CLR 3 -1.9 71% 76.48 0.0
01 23:35 W 7 16.09 Fair CLR 3.7 -1.7 68% 2 76.48 0.0
01 23:15 W 7 16.09 Fair CLR 3.5 -0.9 73% 2 76.48 0.0
01 22:55 SW 7 16.09 Fair CLR 5 -3.2 56% 4 76.48 0.0
01 22:35 W 7 16.09 Fair CLR 5 -2.8 57% 4 76.48 0.0
01 22:15 W 7 16.09 Fair CLR 5.8 -3 54% 5 76.48 0.0
01 21:55 W 7 16.09 Fair CLR 5.5 -2.5 57% 4 76.48 0.0
01 21:35 W 9 16.09 Fair CLR 5.4 -1.8 60% 4 76.48 0.0
01 21:15 NW 7 16.09 Fair CLR 6.9 -2.2 53% 6 76.45 0.0
01 20:55 NW 9 16.09 Fair CLR 6.8 -2.3 53% 5 76.43 0.0
01 20:35 NW 11 16.09 Fair CLR 7.6 -2.8 48% 6 76.45 0.0
01 20:15 NW 9 16.09 Fair CLR 9.2 -3 43% 8 76.43 0.0
01 19:55 NW 13 16.09 Fair CLR 10.5 -3.6 37% 76.43 0.0
01 19:35 NW 17 16.09 Fair CLR 10.9 -3.9 35% 76.43 0.0
01 19:15 N 19 16.09 Fair CLR 11.4 -4.4 33% 76.43 0.0
01 18:55 NW 9 16.09 Fair CLR 11.6 -4.6 12.7 8.9 32% 76.43 0.0
01 18:35 N 9 16.09 Fair CLR 11.8 -4.5 32% 76.43 0.0
01 18:15 NW 13 16.09 Fair CLR 11.2 -4.6 33% 76.43 0.0
01 17:55 N 13 G 30 16.09 Fair CLR 12 -4.6 31% 76.43 0.0
01 17:35 NW 11 16.09 Fair CLR 11.7 -4.6 32% 76.43 0.0
01 17:15 N 22 16.09 Fair CLR 11.4 -3.7 35% 76.43 0.0
01 16:55 NW 13 16.09 Partly Cloudy SCT065 11.3 -4.7 33% 76.43 0.0
01 16:35 W 15 G 30 16.09 Mostly Cloudy BKN065 12.1 -4 33% 76.43 0.0
01 16:15 Vrbl 11 16.09 Mostly Cloudy BKN065 11 -5.1 32% 76.45 0.0
01 15:55 NW 15 16.09 Partly Cloudy SCT065 11.7 -4.2 33% 76.45 0.0
01 15:35 NW 15 16.09 Mostly Cloudy BKN060 11.3 -4.4 33% 76.48 0.0
01 15:15 N 13 16.09 Mostly Cloudy BKN060 10.5 -4 36% 76.48 0.0
01 14:55 NW 17 16.09 Partly Cloudy SCT060 10.3 -4 37% 76.48 0.0
01 14:35 W 9 16.09 Partly Cloudy SCT055 10.8 -3.9 36% 76.48 0.0
01 14:15 NW 15 16.09 Mostly Cloudy BKN055 10.9 -3.5 37% 76.5 0.0
01 13:55 Vrbl 9 16.09 Partly Cloudy SCT055 9.9 -3.5 39% 9 76.5 0.0
01 13:35 N 17 16.09 Mostly Cloudy BKN055 9.4 -3.9 39% 7 76.5 0.0
01 13:15 N 19 G 30 16.09 Mostly Cloudy BKN050 9.8 -3.2 40% 8 76.53 0.0
01 12:55 N 20 G 28 16.09 Partly Cloudy SCT050 9.8 -2.8 9.9 -0.5 41% 7 76.53 0.0
01 12:35 N 22 G 37 16.09 Partly Cloudy SCT050 9.3 -3.3 41% 7 76.53 0.0
01 12:15 N 7 16.09 Mostly Cloudy BKN049 8.4 -3.7 43% 8 76.53 0.0
01 11:55 N 17 16.09 Mostly Cloudy BKN049 8.3 -3.5 44% 6 76.53 0.0
01 11:35 N 15 16.09 Mostly Cloudy BKN048 8.2 -3.6 43% 6 76.53 0.0
01 11:15 NW 20 16.09 Mostly Cloudy BKN049 7.5 -3.2 47% 4 76.56 0.0
01 10:55 N 19 16.09 Overcast OVC055 7.5 -2.2 51% 5 76.56 0.0
01 10:35 N 15 16.09 Mostly Cloudy BKN055 7.5 -1.6 53% 5 76.56 0.0
01 10:15 N 17 16.09 A Few Clouds FEW055 6.8 -0.8 59% 4 76.53 0.0
01 09:55 N 15 16.09 Fair CLR 5.8 -0.4 65% 3 76.56 0.0
01 09:35 N 15 16.09 Fair CLR 5.2 0.2 70% 2 76.53 0.0
01 09:15 N 13 16.09 Fair CLR 4.3 -0.2 73% 2 76.53 0.0
01 08:55 N 13 16.09 Fair CLR 3 -0.5 78% 0 76.53 0.0
01 08:35 N 15 16.09 Fair CLR 2.6 -0.6 80% -1 76.53 0.0
01 08:15 N 19 16.09 Fair CLR 1.8 -1.5 79% -2 76.53 0.0
01 07:55 N 15 14.48 A Few Clouds FEW050 1 -1.7 82% -3 76.5 0.0
01 07:35 NW 15 14.48 Partly Cloudy SCT050 0 -2.2 85% -4 76.48 0.0
01 07:15 NW 13 16.09 Mostly Cloudy BKN050 -0.4 -2.5 86% -4 76.48 0.0
01 06:55 NW 15 14.48 A Few Clouds FEW050 -0.6 -2.5 3.4 -1.4 87% -5 76.45 0.0
01 06:35 NW 17 16.09 Fair CLR -0.6 -2.7 86% -5 76.45 0.0
01 06:15 NW 15 14.48 Fair CLR -1.1 -2.6 90% -5 76.43 0.0
01 05:55 NW 11 16.09 Fair CLR -1 -2.5 90% -4 76.43 0.0
01 05:35 NW 11 16.09 Fair CLR -0.8 -2.5 88% -4 76.4 0.0
01 05:15 NW 13 16.09 Fair CLR -0.4 -2.4 87% -4 76.4 0.0
01 04:55 NW 13 16.09 Fair CLR -0.1 -2.2 86% -4 76.4 0.0
01 04:35 NW 19 16.09 Fair CLR 0.1 -2.1 85% -4 76.4 0.0
01 04:15 NW 17 16.09 Fair CLR 0.2 -2.2 84% -4 76.38 0.0
01 03:55 N 15 16.09 Fair CLR 0.2 -1.9 86% -4 76.38 0.0
01 03:35 N 15 16.09 A Few Clouds FEW055 0.3 -1.6 87% -4 76.38 0.0
01 03:15 NW 15 16.09 Mostly Cloudy BKN060 0.8 -1.1 87% -3 76.38 0.0
01 02:55 N 13 16.09 A Few Clouds FEW060 0.9 -1.6 84% -3 76.38 0.0
01 02:35 N 15 16.09 Partly Cloudy SCT055 1.4 -1.8 80% -2 76.38 0.0
01 02:15 N 17 16.09 Mostly Cloudy BKN060 2.1 -1.6 77% -2 76.4 0.0
01 01:55 N 22 16.09 Overcast OVC060 2.6 -1.8 73% -2 76.4 0.0
01 01:35 N 20 16.09 Mostly Cloudy BKN060 2.8 -1.7 73% -1 76.4 0.0
01 01:15 N 20 16.09 Mostly Cloudy BKN060 3.1 -1.3 73% -1 76.4 0.0
01 00:55 N 22 16.09 Overcast OVC060 3.8 -0.9 7.1 3.8 72% -0 76.4 0.0
01 00:35 N 24 16.09 Overcast OVC060 4.2 -0.4 72% -0 76.38 0.0
01 00:15 N 20 16.09 Overcast OVC070 4.5 0.9 78% 1 76.38 0.0
30 23:55 N 19 16.09 Overcast OVC070 5.1 1.8 79% 2 76.35 0.0
30 23:35 N 15 16.09 Overcast OVC060 5.6 2.8 82% 3 76.35 0.0
30 23:15 N 15 16.09 Overcast OVC049 5.9 3.2 83% 3 76.35 0.0
30 22:55 NW 9 16.09 Overcast BKN049 OVC070 5.1 4.1 93% 3 76.35 0.0
30 22:35 W 6 16.09 Overcast BKN041 BKN055 OVC070 5.4 3.8 90% 76.35 0.0
30 22:15 S 6 16.09 Mostly Cloudy BKN038 BKN075 5.4 4.1 91% 76.33 0.0
30 21:55 W 9 16.09 Overcast BKN075 OVC100 5.6 4.4 92% 4 76.33 0.0
30 21:35 Calm 16.09 Overcast BKN080 OVC100 5.9 4.3 90% 76.3 0.0
30 21:15 Calm 16.09 Overcast SCT060 OVC080 6.3 4.5 88% 76.28 0.0
30 20:55 SW 6 16.09 Overcast FEW055 OVC080 6.8 3.6 80% 76.28 0.0
30 20:35 Calm 16.09 Overcast SCT065 OVC085 6.7 4.1 84% 76.28 0.0
30 20:15 Calm 16.09 Overcast OVC070 6.8 4 83% 76.25 0.0
30 19:55 Calm 16.09 Overcast FEW050 BKN060 OVC080 6.9 3.9 81% 76.25 0.0
30 19:35 Calm 16.09 Overcast FEW048 SCT060 BKN080 OVC100 7 3.8 80% 76.25 0.0
30 19:15 NE 9 16.09 Overcast SCT060 SCT070 OVC100 6.8 4.1 83% 5 76.25 0.0
30 18:55 E 9 16.09 Overcast SCT060 OVC085 7.1 4.1 11.7 6.8 81% 6 76.25 0.0 0.08
30 18:35 NE 13 16.09 Mostly Cloudy FEW050 BKN085 7.1 4.1 81% 5 76.25 0.0
30 18:15 NE 22 16.09 Mostly Cloudy FEW027 SCT033 BKN075 7.2 4.6 84% 4 76.25 0.0
30 17:55 N 30 14.48 Overcast SCT030 OVC055 7.9 4.4 79% 4 76.28 0.0 0.05
30 17:35 W 15 14.48 Overcast OVC060 8.5 3.5 71% 6 76.25 0.0 0.05
30 17:15 W 15 11.27 Overcast SCT021 BKN055 OVC065 7.3 4.6 83% 5 76.25 0.0 0.05
30 16:55 NW 31 G 37 6.44 Rain SCT022 BKN029 BKN049 BKN060 OVC090 7.6 3.7 77% 4 76.3 0.0 0.03
30 16:35 NW 9 16.09 Mostly Cloudy SCT055 BKN090 9.7 1.5 57% 9 76.25 0.0
30 16:15 NE 13 16.09 Partly Cloudy SCT060 SCT120 9.6 3 64% 8 76.25 0.0
30 15:55 N 22 12.87 Overcast FEW024 SCT045 OVC060 8.1 3.5 73% 5 76.3 0.0
30 15:35 NW 28 16.09 Overcast BKN045 OVC060 9.1 2 61% 6 76.33 0.0
30 15:15 N 6 9.66 Light Rain FEW019 SCT037 BKN048 OVC060 8.9 2.1 63% 76.3 0.0
30 14:55 W 28 16.09 Overcast FEW036 OVC050 10.2 -0.8 47% 76.33 0.0
30 14:35 N 15 16.09 Overcast BKN055 BKN070 OVC085 9.9 -1.6 45% 8 76.33 0.0
30 14:15 NW 30 G 35 16.09 Overcast BKN060 OVC080 11 -2.2 40% 76.35 0.0
30 13:55 NW 30 16.09 Overcast BKN055 BKN070 OVC085 11.1 -1.7 41% 76.35 0.0
30 13:35 NW 20 G 31 16.09 Mostly Cloudy BKN050 BKN060 10.7 -1.2 44% 76.38 0.0
30 13:15 NW 20 16.09 Partly Cloudy SCT050 11 -1.6 42% 76.4 0.0
30 12:55 N 11 16.09 Mostly Cloudy FEW046 BKN080 9.4 -1.9 9.8 -0.5 45% 8 76.43 0.0
30 12:35 W 17 16.09 Mostly Cloudy BKN085 9.2 -1.9 46% 7 76.45 0.0
30 12:15 NW 15 G 28 16.09 Overcast FEW045 BKN090 OVC110 9.1 -2 46% 7 76.48 0.0
30 11:55 W 15 16.09 Mostly Cloudy SCT060 BKN110 7.8 -2.9 47% 6 76.5 0.0
30 11:35 NW 15 16.09 Mostly Cloudy BKN060 BKN100 7.1 -3 49% 5 76.5 0.0
30 11:15 N 13 16.09 Mostly Cloudy BKN065 BKN095 6.9 -2.8 50% 5 76.53 0.0
30 10:55 N 11 16.09 Mostly Cloudy BKN065 7.2 -2.9 49% 5 76.53 0.0
30 10:35 N 13 16.09 Fair CLR 6.6 -3 51% 4 76.53 0.0
30 10:15 N 17 16.09 Partly Cloudy SCT065 6.4 -2.9 52% 4 76.53 0.0
30 09:55 N 17 16.09 Mostly Cloudy BKN070 5.6 -3.1 54% 3 76.53 0.0
30 09:35 N 17 16.09 Overcast OVC070 4.9 -2.9 57% 2 76.53 0.0
30 09:15 N 15 16.09 Mostly Cloudy BKN070 4.5 -3.2 58% 2 76.56 0.0
30 08:55 N 15 16.09 Fair CLR 3.8 -3.9 58% 1 76.53 0.0
30 08:35 N 13 16.09 Fair CLR 3.7 -3.3 61% 1 76.53 0.0
30 08:15 N 15 16.09 Fair CLR 3.3 -3.1 63% 0 76.53 0.0
30 07:55 N 7 14.48 A Few Clouds FEW060 1.9 -1.3 80% 0 76.53 0.0
30 07:35 N 9 14.48 A Few Clouds FEW060 1.2 -1.5 82% -1 76.53 0.0
30 07:15 NW 6 14.48 Fair CLR -0.1 -1.7 89% 76.53 0.0
30 06:55 Calm 12.87 Fair CLR -1.1 -2.8 4.3 -2.3 88% 76.53 0.0
30 06:35 N 9 12.87 Fair CLR -2.3 -3.4 92% -5 76.53 0.0
30 06:15 N 11 12.87 Fair CLR -2.1 -3.4 91% -6 76.5 0.0
30 05:55 NW 11 16.09 Fair CLR -2 -3.6 89% -6 76.5 0.0
30 05:35 N 9 14.48 Fair CLR -1.1 -2.5 90% -4 76.53 0.0
30 05:15 NW 9 14.48 Fair CLR -1.1 -2.5 90% -4 76.53 0.0
30 04:55 NW 9 16.09 Fair CLR -1.2 -2.7 90% -4 76.5 0.0
30 04:35 NW 7 16.09 Fair CLR -0.4 -2.3 87% -3 76.53 0.0
30 04:15 NW 7 16.09 A Few Clouds FEW080 0.6 -2 83% -1 76.5 0.0
30 03:55 NW 9 16.09 Partly Cloudy SCT080 0.9 -2.1 81% -2 76.5 0.0
30 03:35 N 13 16.09 Mostly Cloudy BKN080 1.4 -1.8 80% -2 76.5 0.0
30 03:15 N 9 16.09 Mostly Cloudy BKN080 2.5 -1.3 76% 0 76.5 0.0
30 02:55 N 11 16.09 Overcast OVC065 3.7 -1.3 70% 1 76.5 0.0
30 02:35 N 9 16.09 Overcast OVC060 3 -0.7 77% 1 76.48 0.0
30 02:15 N 9 16.09 Overcast SCT065 OVC090 2.8 -1.2 75% 1 76.48 0.0
30 01:55 N 11 16.09 Overcast SCT075 OVC090 3.1 -1.3 73% 0 76.48 0.0
30 01:35 N 11 16.09 Overcast SCT070 OVC090 3.3 -1.4 72% 1 76.48 0.0
30 01:15 N 15 16.09 Overcast OVC075 3.9 -1.6 68% 1 76.48 0.0
30 00:55 N 17 16.09 Overcast OVC080 4.3 -1.5 12.5 4.3 66% 1 76.48 0.0
30 00:35 N 19 16.09 Overcast OVC085 4.6 -1.2 66% 1 76.48 0.0
30 00:15 N 17 16.09 Overcast FEW065 OVC080 4.9 -1.1 65% 2 76.45 0.0
29 23:55 N 17 16.09 Overcast BKN065 OVC080 5.3 -0.9 65% 2 76.45 0.0
29 23:35 N 19 16.09 Overcast BKN065 OVC085 5.8 -1.1 62% 3 76.45 0.0
29 23:15 N 20 16.09 Overcast OVC060 6.4 -1.3 58% 3 76.45 0.0
29 22:55 N 17 16.09 Overcast OVC055 6.8 -0.9 58% 4 76.43 0.0
29 22:35 N 13 16.09 Overcast OVC060 7 -0.7 58% 5 76.43 0.0
29 22:15 N 15 16.09 Overcast OVC060 7.2 -0.2 60% 5 76.4 0.0
29 21:55 N 11 16.09 Overcast BKN065 OVC080 6.6 0.3 64% 5 76.38 0.0
29 21:35 N 13 16.09 Overcast OVC080 7.9 -0.1 57% 6 76.35 0.0
29 21:15 N 17 16.09 Overcast OVC080 8.5 -0.3 54% 6 76.33 0.0
29 20:55 N 19 14.48 Overcast OVC075 9 0 54% 7 76.3 0.0
29 20:35 N 20 14.48 Mostly Cloudy BKN070 BKN085 9.3 0.2 53% 7 76.28 0.0
29 20:15 N 19 14.48 A Few Clouds FEW110 9.6 -0.1 51% 7 76.28 0.0
29 19:55 N 20 14.48 Partly Cloudy SCT110 10.6 -0.3 47% 76.25 0.0
29 19:35 N 24 14.48 Partly Cloudy SCT120 11.2 -0.1 46% 76.25 0.0
29 19:15 N 22 16.09 Fair CLR 12.1 -0.2 43% 76.25 0.0
29 18:55 N 20 16.09 A Few Clouds FEW065 12.8 0 14.4 11.5 42% 76.23 0.0
29 18:35 N 24 16.09 Partly Cloudy SCT065 13.2 0.3 41% 76.23 0.0
29 18:15 N 24 16.09 Mostly Cloudy BKN065 13.4 0.1 40% 76.23 0.0
29 17:55 N 17 16.09 Mostly Cloudy BKN065 14 -0.4 37% 76.23 0.0
29 17:35 N 20 G 35 16.09 Partly Cloudy SCT065 14.4 -0.4 36% 76.23 0.0
29 17:15 NW 22 16.09 A Few Clouds FEW060 14.2 -0.6 36% 76.23 0.0
29 16:55 NW 15 16.09 Mostly Cloudy BKN085 13.5 -0.6 38% 76.25 0.0
29 16:35 NW 24 16.09 Overcast FEW060 BKN085 OVC110 14.2 -0.1 38% 76.25 0.0
29 16:15 NW 20 G 30 16.09 Mostly Cloudy FEW060 BKN110 12.9 -0.4 40% 76.25 0.0
29 15:55 NW 19 16.09 Partly Cloudy FEW060 SCT100 13.2 -0.6 39% 76.28 0.0
Date Time (cdt) Wind (kph) Vis. (km) Weather Sky Cond. Air Dwpt Max. Min. Relative Humidity Wind Chill (°C) Heat Index (°C) altimeter (cm) sea level (mb) 1 hr 3 hr 6 hr
6 hour
Temperature (ºC) Pressure Precipitation (cm)